Terminal Aerodrome Forecast
Issued by NWS

Home | Current Version | Previous Version | Text Only | Print | Product List | Glossary On
Versions: 1 2 3 4 5 6 7 8 9 10 11 12 13 14 15 16 17 18 19 20 21 22 23 24 25 26 27 28 29 30 31 32 33 34 35 36 37
000
FTUS45 KGJT 271733
TAFMTJ
TAF
KMTJ 271733Z 2718/2818 33008KT P6SM VCSH FEW070 SCT120
     FM280300 15006KT P6SM SCT100 BKN150
     FM280600 13006KT P6SM SCT150
     FM281400 VRB03KT P6SM SCT180=

USA.gov is the U.S. government's official web portal to all federal, state and local government web resources and services.